Time;durP1;ratioP1;P1;durP2;ratioP2;P2;SDS_P1;SDS_P2;PMS_P1;PMS_P2;Temp;Humidity;BMP_temperature;BMP_pressure;BME280_temperature;BME280_humidity;BME280_pressure;Samples;Min_cycle;Max_cycle;Signal;HPM_P1;HPM_P2
2021/06/26 00:00:29;;;;;;;22.90;20.60;;;16.40;99.90;;;;;;5095163;28;20620;-62
2021/06/26 00:02:59;;;;;;;23.13;20.70;;;16.40;99.90;;;;;;5095036;28;20218;-62
2021/06/26 00:05:27;;;;;;;22.45;20.17;;;16.40;99.90;;;;;;5094553;28;20225;-62
2021/06/26 00:07:54;;;;;;;23.38;20.88;;;16.30;99.90;;;;;;5094965;28;20234;-63
2021/06/26 00:10:22;;;;;;;24.90;20.98;;;16.30;99.90;;;;;;5094632;28;20218;-62
2021/06/26 00:12:50;;;;;;;24.55;20.95;;;16.30;99.90;;;;;;5095147;28;20234;-63
2021/06/26 00:15:18;;;;;;;23.60;20.85;;;16.20;99.90;;;;;;5094800;28;20215;-62
2021/06/26 00:17:46;;;;;;;24.05;21.65;;;16.20;99.90;;;;;;5096534;28;20241;-61
2021/06/26 00:20:15;;;;;;;26.33;22.55;;;16.20;99.90;;;;;;5097132;28;20293;-62
2021/06/26 00:22:43;;;;;;;24.98;22.23;;;16.20;99.90;;;;;;5096154;28;20214;-63
2021/06/26 00:25:12;;;;;;;25.38;22.67;;;16.20;99.90;;;;;;5094379;28;20245;-63
2021/06/26 00:27:40;;;;;;;24.02;21.48;;;16.20;99.90;;;;;;5094632;28;20238;-63
2021/06/26 00:30:09;;;;;;;23.88;21.48;;;16.20;99.90;;;;;;5094582;28;20214;-62
2021/06/26 00:32:37;;;;;;;26.10;23.33;;;16.10;99.90;;;;;;5094185;28;20585;-62
2021/06/26 00:35:06;;;;;;;28.90;23.95;;;16.10;99.90;;;;;;5094078;28;20225;-63
2021/06/26 00:37:35;;;;;;;25.67;22.95;;;16.10;99.90;;;;;;5094427;28;20226;-62
2021/06/26 00:40:04;;;;;;;25.52;22.85;;;16.20;99.90;;;;;;5094381;28;20556;-62
2021/06/26 00:42:32;;;;;;;27.08;24.27;;;16.10;99.90;;;;;;5094399;28;20236;-62
2021/06/26 00:45:00;;;;;;;28.23;24.33;;;16.10;99.90;;;;;;5093990;28;20210;-62
2021/06/26 00:47:28;;;;;;;28.33;23.63;;;16.10;99.90;;;;;;5094247;28;20559;-61
2021/06/26 00:49:58;;;;;;;32.30;26.27;;;16.10;99.90;;;;;;5093870;28;20250;-62
2021/06/26 00:52:26;;;;;;;29.75;26.58;;;16.20;99.90;;;;;;5094039;28;20297;-62
2021/06/26 00:54:55;;;;;;;28.98;24.98;;;16.30;99.90;;;;;;5094105;28;20211;-62
2021/06/26 00:57:23;;;;;;;29.25;26.15;;;16.30;99.90;;;;;;5094044;28;20234;-62
2021/06/26 00:59:51;;;;;;;30.40;26.92;;;16.40;99.90;;;;;;5093967;28;20214;-62
2021/06/26 01:02:19;;;;;;;28.55;25.40;;;16.50;99.90;;;;;;5094065;28;20310;-61
2021/06/26 01:04:47;;;;;;;29.90;26.05;;;16.50;99.90;;;;;;5093619;28;20215;-63
2021/06/26 01:07:15;;;;;;;33.47;26.55;;;16.30;99.90;;;;;;5093219;28;20214;-61
2021/06/26 01:09:43;;;;;;;33.22;27.30;;;16.20;99.90;;;;;;5093806;28;20210;-63
2021/06/26 01:12:12;;;;;;;30.20;26.70;;;16.10;99.90;;;;;;5093930;28;20214;-62
2021/06/26 01:14:41;;;;;;;28.63;25.63;;;16.10;99.90;;;;;;5093529;28;20214;-63
2021/06/26 01:17:09;;;;;;;29.23;26.08;;;16.00;99.90;;;;;;5093417;28;20233;-62
2021/06/26 01:19:37;;;;;;;34.65;28.98;;;15.80;99.90;;;;;;5093523;28;20305;-63
2021/06/26 01:22:06;;;;;;;33.20;27.40;;;15.90;99.90;;;;;;5093582;28;20297;-62
2021/06/26 01:24:37;;;;;;;34.35;28.83;;;15.90;99.90;;;;;;5093460;28;20217;-62
2021/06/26 01:27:05;;;;;;;35.00;28.70;;;15.90;99.90;;;;;;5093296;28;20301;-61
2021/06/26 01:29:33;;;;;;;30.92;27.60;;;15.90;99.90;;;;;;5093557;28;20214;-61
2021/06/26 01:32:05;;;;;;;33.60;28.73;;;15.80;99.90;;;;;;5093458;28;20336;-63
2021/06/26 01:34:33;;;;;;;32.65;27.00;;;15.80;99.90;;;;;;5093321;28;20205;-62
2021/06/26 01:37:00;;;;;;;33.53;29.30;;;15.80;99.90;;;;;;5093412;28;20321;-62
2021/06/26 01:39:28;;;;;;;36.42;29.88;;;15.80;99.90;;;;;;5093378;28;20313;-61
2021/06/26 01:41:57;;;;;;;33.63;29.05;;;15.80;99.90;;;;;;5093187;28;20326;-63
2021/06/26 01:44:25;;;;;;;34.90;28.92;;;15.80;99.90;;;;;;5092953;28;20216;-63
2021/06/26 01:46:53;;;;;;;34.10;28.42;;;15.70;99.90;;;;;;5093525;28;20328;-62
2021/06/26 01:49:21;;;;;;;32.38;27.55;;;15.70;99.90;;;;;;5093031;28;20246;-62
2021/06/26 01:51:49;;;;;;;36.70;29.05;;;15.70;99.90;;;;;;5092803;28;20661;-62
2021/06/26 01:54:18;;;;;;;33.00;28.00;;;15.60;99.90;;;;;;5092985;28;20218;-64
2021/06/26 01:56:46;;;;;;;31.95;27.40;;;15.50;99.90;;;;;;5093113;28;20309;-62
2021/06/26 01:59:15;;;;;;;38.17;30.08;;;15.50;99.90;;;;;;5093089;28;20215;-62
2021/06/26 02:01:43;;;;;;;34.50;29.38;;;15.60;99.90;;;;;;5092697;28;20211;-62
2021/06/26 02:04:11;;;;;;;33.08;29.55;;;15.60;99.90;;;;;;5092882;28;20279;-63
2021/06/26 02:06:39;;;;;;;33.53;29.05;;;15.60;99.90;;;;;;5092674;28;20681;-62
2021/06/26 02:09:07;;;;;;;35.90;29.73;;;15.50;99.90;;;;;;5093274;28;20217;-62
2021/06/26 02:11:35;;;;;;;36.35;28.98;;;15.50;99.90;;;;;;5092907;28;20647;-62
2021/06/26 02:14:03;;;;;;;36.35;29.25;;;15.50;99.90;;;;;;5093126;28;20214;-63
2021/06/26 02:16:32;;;;;;;36.67;29.83;;;15.50;99.90;;;;;;5092637;28;20214;-63
2021/06/26 02:19:00;;;;;;;38.33;30.98;;;15.50;99.90;;;;;;5093837;28;20233;-62
2021/06/26 02:21:28;;;;;;;36.85;29.50;;;15.50;99.90;;;;;;5097143;28;20214;-62
2021/06/26 02:23:56;;;;;;;35.58;29.70;;;15.40;99.90;;;;;;5097197;28;20313;-62
2021/06/26 02:26:24;;;;;;;37.88;29.48;;;15.40;99.90;;;;;;5096895;28;20214;-63
2021/06/26 02:28:52;;;;;;;37.40;29.63;;;15.40;99.90;;;;;;5096745;28;20212;-63
2021/06/26 02:31:20;;;;;;;36.10;29.95;;;15.40;99.90;;;;;;5096505;28;20237;-61
2021/06/26 02:33:49;;;;;;;35.50;29.98;;;15.40;99.90;;;;;;5096594;28;20221;-63
2021/06/26 02:36:17;;;;;;;38.10;31.00;;;15.40;99.90;;;;;;5096480;28;20658;-63
2021/06/26 02:38:45;;;;;;;35.97;29.98;;;15.50;99.90;;;;;;5096960;28;20230;-62
2021/06/26 02:41:12;;;;;;;33.80;28.67;;;15.50;99.90;;;;;;5096431;28;20696;-62
2021/06/26 02:43:40;;;;;;;35.72;29.45;;;15.50;99.90;;;;;;5096672;28;20210;-63
2021/06/26 02:46:08;;;;;;;35.50;29.70;;;15.50;99.90;;;;;;5096505;28;20309;-62
2021/06/26 02:48:36;;;;;;;34.53;29.10;;;15.50;99.90;;;;;;5096396;28;20217;-64
2021/06/26 02:51:06;;;;;;;34.55;29.00;;;15.50;99.90;;;;;;5096725;28;20627;-61
2021/06/26 02:53:33;;;;;;;32.97;29.33;;;15.50;99.90;;;;;;5096503;28;20298;-63
2021/06/26 02:56:01;;;;;;;32.85;28.85;;;15.50;99.90;;;;;;5096165;28;20555;-63
2021/06/26 02:58:29;;;;;;;35.15;28.85;;;15.60;99.90;;;;;;5096371;28;20238;-62
2021/06/26 03:00:57;;;;;;;30.50;27.13;;;15.70;99.90;;;;;;5095886;28;20232;-62
2021/06/26 03:03:25;;;;;;;31.63;28.17;;;15.70;99.90;;;;;;5096254;28;20283;-63
2021/06/26 03:05:53;;;;;;;34.33;28.02;;;15.70;99.90;;;;;;5096003;28;20611;-62
2021/06/26 03:08:22;;;;;;;33.35;27.95;;;15.80;99.90;;;;;;5095964;28;20211;-63
2021/06/26 03:10:50;;;;;;;30.98;26.67;;;16.10;99.90;;;;;;5096135;28;20309;-62
2021/06/26 03:13:19;;;;;;;30.15;26.52;;;16.00;99.90;;;;;;5096115;28;20305;-62
2021/06/26 03:15:47;;;;;;;30.92;26.58;;;16.10;99.90;;;;;;5095544;28;20214;-63
2021/06/26 03:18:15;;;;;;;27.73;24.73;;;16.10;99.90;;;;;;5095694;28;20238;-63
2021/06/26 03:20:43;;;;;;;29.38;26.23;;;16.10;99.90;;;;;;5095790;28;20215;-63
2021/06/26 03:23:11;;;;;;;27.63;24.65;;;16.10;99.90;;;;;;5095886;28;20218;-63
2021/06/26 03:25:40;;;;;;;30.48;26.27;;;16.00;99.90;;;;;;5095523;28;20218;-62
2021/06/26 03:28:08;;;;;;;30.77;25.38;;;16.10;99.90;;;;;;5095699;28;20217;-63
2021/06/26 03:30:36;;;;;;;28.40;25.20;;;16.10;99.90;;;;;;5094404;28;20217;-63
2021/06/26 03:33:04;;;;;;;32.78;26.70;;;16.10;99.90;;;;;;5094962;28;20592;-63
2021/06/26 03:35:31;;;;;;;29.40;25.00;;;16.10;99.90;;;;;;5095129;28;20219;-63
2021/06/26 03:37:59;;;;;;;26.33;23.58;;;16.30;99.90;;;;;;5095390;28;20322;-62
2021/06/26 03:40:27;;;;;;;28.52;24.83;;;16.40;99.90;;;;;;5095409;28;20221;-63
2021/06/26 03:42:57;;;;;;;30.05;25.23;;;16.40;99.90;;;;;;5095448;28;20305;-64
2021/06/26 03:45:25;;;;;;;30.65;26.95;;;16.50;99.90;;;;;;5095228;28;20210;-63
2021/06/26 03:47:53;;;;;;;31.63;26.48;;;16.60;99.90;;;;;;5095416;28;20216;-62
2021/06/26 03:50:21;;;;;;;30.42;25.88;;;16.80;99.90;;;;;;5094858;28;20254;-63
2021/06/26 03:52:49;;;;;;;31.45;26.38;;;16.80;99.90;;;;;;5095354;28;20224;-63
2021/06/26 03:55:17;;;;;;;29.20;25.73;;;16.90;99.90;;;;;;5095258;28;20313;-63
2021/06/26 03:57:45;;;;;;;30.42;26.83;;;16.80;99.90;;;;;;5095142;28;20222;-63
2021/06/26 04:00:15;;;;;;;31.45;25.75;;;16.90;99.90;;;;;;5094915;28;20553;-64
2021/06/26 04:02:43;;;;;;;30.65;26.48;;;17.20;99.90;;;;;;5094975;28;20528;-62
2021/06/26 04:05:11;;;;;;;31.23;24.70;;;17.20;99.90;;;;;;5095001;28;20594;-62
2021/06/26 04:07:39;;;;;;;27.05;24.23;;;17.30;99.90;;;;;;5095184;28;20210;-62
2021/06/26 04:10:09;;;;;;;27.60;24.63;;;17.30;99.90;;;;;;5094998;28;20211;-62
2021/06/26 04:12:36;;;;;;;31.35;25.48;;;17.30;99.90;;;;;;5095090;28;20638;-63
2021/06/26 04:15:06;;;;;;;26.02;23.23;;;17.20;99.90;;;;;;5094791;28;20242;-63
2021/06/26 04:17:35;;;;;;;27.23;24.40;;;17.20;99.90;;;;;;5094594;28;20274;-62
2021/06/26 04:20:03;;;;;;;27.77;24.75;;;17.40;99.90;;;;;;5094607;28;20238;-63
2021/06/26 04:22:31;;;;;;;25.70;23.00;;;17.60;99.90;;;;;;5094833;28;20224;-62
2021/06/26 04:24:59;;;;;;;26.88;23.45;;;17.80;99.90;;;;;;5094554;28;20753;-62
2021/06/26 04:27:27;;;;;;;25.20;21.88;;;18.00;99.90;;;;;;5094662;28;20297;-62
2021/06/26 04:29:55;;;;;;;26.20;21.52;;;18.20;99.90;;;;;;5094628;28;20210;-63
2021/06/26 04:32:24;;;;;;;25.10;22.10;;;18.40;99.90;;;;;;5094641;28;20232;-63
2021/06/26 04:34:53;;;;;;;24.85;22.23;;;18.60;99.90;;;;;;5094408;28;20250;-64
2021/06/26 04:37:21;;;;;;;24.73;22.00;;;18.70;99.90;;;;;;5094591;28;20218;-62
2021/06/26 04:39:49;;;;;;;24.67;22.15;;;18.90;99.90;;;;;;5094585;28;20231;-63
2021/06/26 04:42:17;;;;;;;25.67;22.85;;;18.90;99.90;;;;;;5094223;28;20236;-64
2021/06/26 04:44:45;;;;;;;25.08;22.58;;;18.90;99.90;;;;;;5094178;28;20301;-62
2021/06/26 04:47:13;;;;;;;25.35;22.17;;;18.90;99.90;;;;;;5096170;28;20220;-62
2021/06/26 04:49:41;;;;;;;24.67;22.08;;;19.00;99.90;;;;;;5098103;28;20337;-61
2021/06/26 04:52:11;;;;;;;25.02;22.40;;;19.00;99.90;;;;;;5097379;28;20216;-62
2021/06/26 04:54:39;;;;;;;25.40;20.30;;;19.30;99.90;;;;;;5094669;28;20246;-63
2021/06/26 04:57:07;;;;;;;21.02;18.83;;;20.20;99.90;;;;;;5094128;28;20257;-62
2021/06/26 04:59:35;;;;;;;19.13;17.13;;;21.20;99.90;;;;;;5093896;28;20230;-62
2021/06/26 05:02:04;;;;;;;17.70;15.85;;;22.20;99.90;;;;;;5093915;28;20225;-63
2021/06/26 05:04:32;;;;;;;20.38;18.35;;;23.00;99.90;;;;;;5093467;28;20845;-63
2021/06/26 05:07:00;;;;;;;20.17;18.02;;;23.30;99.90;;;;;;5093641;28;20236;-62
2021/06/26 05:09:29;;;;;;;20.17;18.10;;;23.30;99.90;;;;;;5093863;28;20214;-62
2021/06/26 05:11:57;;;;;;;20.33;17.98;;;23.80;99.90;;;;;;5093629;28;20709;-63
2021/06/26 05:14:24;;;;;;;21.13;19.02;;;24.50;99.90;;;;;;5093575;28;20214;-63
2021/06/26 05:16:52;;;;;;;20.45;18.38;;;24.80;99.90;;;;;;5093719;28;20222;-62
2021/06/26 05:19:20;;;;;;;17.25;15.45;;;24.80;99.90;;;;;;5093749;28;20230;-63
2021/06/26 05:21:48;;;;;;;19.85;17.85;;;24.90;99.90;;;;;;5093362;28;20301;-62
2021/06/26 05:24:16;;;;;;;22.33;20.08;;;24.60;99.90;;;;;;5093381;28;20228;-63
2021/06/26 05:26:45;;;;;;;17.95;16.10;;;24.20;99.90;;;;;;5093441;28;20220;-63
2021/06/26 05:29:13;;;;;;;18.02;16.23;;;24.70;99.90;;;;;;5093126;28;20219;-62
2021/06/26 05:31:41;;;;;;;16.88;15.38;;;25.40;99.90;;;;;;5093384;28;20210;-62
2021/06/26 05:34:09;;;;;;;17.58;15.82;;;26.30;99.90;;;;;;5092886;28;20675;-64
2021/06/26 05:36:37;;;;;;;20.23;18.02;;;27.00;99.90;;;;;;5093158;28;20309;-63
2021/06/26 05:39:05;;;;;;;17.40;15.68;;;27.70;99.90;;;;;;5093079;28;20325;-62
2021/06/26 05:41:33;;;;;;;17.35;15.65;;;27.70;99.90;;;;;;5093271;28;20220;-63
2021/06/26 05:44:02;;;;;;;21.15;18.98;;;28.00;99.90;;;;;;5093152;28;20245;-63
2021/06/26 05:46:30;;;;;;;20.38;18.27;;;27.60;99.90;;;;;;5093291;28;20309;-63
2021/06/26 05:48:58;;;;;;;20.50;18.70;;;27.00;99.90;;;;;;5093022;28;20246;-62
2021/06/26 05:51:26;;;;;;;21.40;19.25;;;26.20;99.90;;;;;;5093120;28;20214;-62
2021/06/26 05:53:54;;;;;;;19.42;17.52;;;25.40;99.90;;;;;;5087228;28;20219;-62
2021/06/26 05:56:23;;;;;;;20.23;18.30;;;24.90;99.90;;;;;;5084523;28;20236;-63
2021/06/26 05:58:50;;;;;;;21.02;18.67;;;24.30;99.90;;;;;;5092857;28;20210;-63
2021/06/26 06:01:20;;;;;;;19.83;17.92;;;24.00;99.90;;;;;;5093089;28;20556;-63
2021/06/26 06:03:47;;;;;;;21.10;18.90;;;23.70;99.90;;;;;;5093137;28;20222;-63
2021/06/26 06:06:15;;;;;;;18.88;17.05;;;23.40;99.90;;;;;;5092594;28;20220;-63
2021/06/26 06:08:43;;;;;;;18.58;16.58;;;23.40;99.90;;;;;;5092717;28;20233;-63
2021/06/26 06:11:11;;;;;;;21.98;19.83;;;23.20;99.90;;;;;;5092498;28;20217;-64
2021/06/26 06:13:39;;;;;;;21.17;18.98;;;23.20;99.90;;;;;;5092849;28;20228;-63
2021/06/26 06:16:06;;;;;;;19.45;17.45;;;23.20;99.90;;;;;;5092490;28;20262;-62
2021/06/26 06:18:36;;;;;;;21.38;19.20;;;23.20;99.90;;;;;;5092627;28;20217;-62
2021/06/26 06:21:04;;;;;;;20.60;18.45;;;23.30;99.90;;;;;;5092209;28;20321;-63
2021/06/26 06:23:32;;;;;;;20.17;18.10;;;23.30;99.90;;;;;;5092817;28;20301;-62
2021/06/26 06:25:59;;;;;;;19.73;17.73;;;23.20;99.90;;;;;;5092281;28;20220;-64
2021/06/26 06:28:27;;;;;;;20.98;18.88;;;23.20;99.90;;;;;;5092728;28;20218;-62
2021/06/26 06:30:55;;;;;;;20.13;17.85;;;23.20;99.90;;;;;;5092506;28;20301;-62
2021/06/26 06:33:23;;;;;;;21.25;19.08;;;23.20;99.90;;;;;;5092666;28;20220;-63
2021/06/26 06:35:52;;;;;;;20.58;18.38;;;23.10;99.90;;;;;;5092369;28;20678;-62
2021/06/26 06:38:20;;;;;;;19.83;17.98;;;23.10;99.90;;;;;;5092666;28;20583;-62
2021/06/26 06:40:48;;;;;;;20.27;18.17;;;23.30;99.90;;;;;;5092156;28;20229;-61
2021/06/26 06:43:16;;;;;;;20.27;18.00;;;23.30;99.90;;;;;;5092519;28;20662;-62
2021/06/26 06:45:44;;;;;;;21.77;19.45;;;23.30;99.90;;;;;;5091760;28;20305;-62
2021/06/26 06:48:12;;;;;;;19.17;17.38;;;23.30;99.90;;;;;;5092429;28;20215;-62
2021/06/26 06:50:39;;;;;;;20.50;17.90;;;23.20;99.90;;;;;;5091979;28;20238;-63
2021/06/26 06:53:09;;;;;;;20.40;18.25;;;23.30;99.90;;;;;;5092547;28;20214;-63
2021/06/26 06:55:37;;;;;;;21.17;18.95;;;23.40;99.90;;;;;;5092204;28;20217;-63
2021/06/26 06:58:05;;;;;;;19.80;17.73;;;23.50;99.90;;;;;;5092564;28;20248;-62
2021/06/26 07:00:33;;;;;;;18.20;16.38;;;23.40;99.90;;;;;;5092055;28;20234;-63
2021/06/26 07:03:01;;;;;;;19.38;17.48;;;23.40;99.90;;;;;;5092399;28;20744;-63
2021/06/26 07:05:28;;;;;;;18.30;16.60;;;23.50;99.90;;;;;;5093668;28;20309;-62
2021/06/26 07:07:57;;;;;;;18.27;16.50;;;23.40;99.90;;;;;;5096082;28;20214;-63
2021/06/26 07:10:26;;;;;;;18.58;16.63;;;23.10;99.90;;;;;;5095909;28;20214;-63
2021/06/26 07:12:54;;;;;;;16.63;14.95;;;22.80;99.90;;;;;;5096481;28;20218;-63
2021/06/26 07:15:22;;;;;;;16.65;15.02;;;22.60;99.90;;;;;;5095931;28;20366;-63
2021/06/26 07:17:50;;;;;;;17.48;15.77;;;22.60;99.90;;;;;;5096001;28;20330;-62
2021/06/26 07:20:19;;;;;;;18.02;16.30;;;22.50;99.90;;;;;;5095782;28;20246;-63
2021/06/26 07:22:47;;;;;;;19.58;17.50;;;22.60;99.90;;;;;;5095447;28;20214;-63
2021/06/26 07:25:15;;;;;;;17.45;15.60;;;22.70;99.90;;;;;;5095544;28;20606;-62
2021/06/26 07:27:44;;;;;;;19.52;17.13;;;22.60;99.90;;;;;;5095721;28;20225;-63
2021/06/26 07:30:13;;;;;;;18.48;16.67;;;22.60;99.90;;;;;;5095444;28;20212;-62
2021/06/26 07:32:42;;;;;;;17.85;16.05;;;22.70;99.90;;;;;;5095210;28;20210;-63
2021/06/26 07:35:11;;;;;;;16.30;14.65;;;22.80;99.90;;;;;;5081084;28;20207;-62
2021/06/26 07:37:39;;;;;;;19.42;17.30;;;22.80;99.90;;;;;;5082146;28;20257;-63
2021/06/26 07:40:08;;;;;;;17.70;15.85;;;22.80;99.90;;;;;;5095272;28;20797;-63
2021/06/26 07:42:35;;;;;;;17.55;15.60;;;22.80;99.90;;;;;;5095200;28;20428;-63
2021/06/26 07:45:06;;;;;;;19.10;17.30;;;22.60;99.90;;;;;;5095130;28;20304;-63
2021/06/26 07:47:35;;;;;;;18.08;15.93;;;22.40;99.90;;;;;;5095374;28;20597;-63
2021/06/26 07:50:04;;;;;;;18.50;16.58;;;22.40;99.90;;;;;;5094832;28;20751;-62
2021/06/26 07:52:32;;;;;;;16.92;15.15;;;22.30;99.90;;;;;;5095232;28;20214;-62
2021/06/26 07:55:00;;;;;;;15.80;14.20;;;22.20;99.90;;;;;;5094927;28;20602;-61
2021/06/26 07:57:28;;;;;;;16.35;14.65;;;22.10;99.90;;;;;;5091688;28;20222;-61
2021/06/26 07:59:56;;;;;;;17.77;15.98;;;22.00;99.90;;;;;;5080105;28;20217;-61
2021/06/26 08:02:25;;;;;;;18.30;16.40;;;22.00;99.90;;;;;;5094611;28;20306;-61
2021/06/26 08:04:53;;;;;;;19.27;16.92;;;21.80;99.90;;;;;;5076851;28;20597;-62
2021/06/26 08:07:21;;;;;;;18.52;16.63;;;21.80;99.90;;;;;;5074628;28;20225;-61
2021/06/26 08:09:48;;;;;;;16.05;14.45;;;22.10;99.90;;;;;;5074784;28;20211;-62
2021/06/26 08:12:17;;;;;;;18.20;16.00;;;22.30;99.90;;;;;;5074674;28;20218;-61
2021/06/26 08:14:45;;;;;;;17.08;15.35;;;22.70;99.90;;;;;;5074407;28;20215;-61
2021/06/26 08:17:14;;;;;;;18.85;16.75;;;23.00;99.90;;;;;;5073847;28;20561;-61
2021/06/26 08:19:43;;;;;;;13.55;12.13;;;23.10;99.90;;;;;;5074373;28;20219;-60
2021/06/26 08:22:11;;;;;;;14.15;12.65;;;23.30;99.90;;;;;;5073802;28;20321;-60
2021/06/26 08:24:39;;;;;;;14.40;13.00;;;23.50;99.90;;;;;;5074247;28;20302;-60
2021/06/26 08:27:08;;;;;;;13.43;12.02;;;23.80;99.90;;;;;;5078785;28;20221;-60
2021/06/26 08:29:35;;;;;;;13.18;11.98;;;24.30;99.90;;;;;;5094233;28;20220;-60
2021/06/26 08:32:04;;;;;;;12.85;11.65;;;24.40;99.90;;;;;;5094421;28;20293;-61
2021/06/26 08:34:32;;;;;;;17.70;15.80;;;24.60;99.90;;;;;;5094219;28;20560;-61
2021/06/26 08:37:01;;;;;;;18.35;15.63;;;25.00;99.90;;;;;;5094265;28;20220;-61
2021/06/26 08:39:29;;;;;;;14.60;13.30;;;25.00;99.90;;;;;;5094138;28;20240;-61
2021/06/26 08:41:57;;;;;;;13.90;12.40;;;24.80;99.90;;;;;;5094051;28;20329;-61
2021/06/26 08:44:25;;;;;;;13.32;11.98;;;24.70;99.90;;;;;;5093893;28;20300;-61
2021/06/26 08:46:53;;;;;;;16.00;14.30;;;24.50;99.90;;;;;;5094304;28;20215;-61
2021/06/26 08:49:21;;;;;;;13.40;12.20;;;24.30;99.90;;;;;;5093727;28;20246;-62
2021/06/26 08:51:49;;;;;;;13.70;12.40;;;24.00;99.90;;;;;;5093552;28;20305;-62
2021/06/26 08:54:21;;;;;;;13.77;12.27;;;23.70;99.90;;;;;;5093851;28;20202;-62
2021/06/26 08:56:50;;;;;;;11.45;10.35;;;23.40;99.90;;;;;;5093921;28;20305;-59
2021/06/26 08:59:18;;;;;;;15.15;13.60;;;23.00;99.90;;;;;;5093144;28;20222;-60
2021/06/26 09:01:46;;;;;;;13.38;12.07;;;22.80;99.90;;;;;;5093107;28;20901;-60
2021/06/26 09:04:17;;;;;;;11.65;10.45;;;22.60;99.90;;;;;;5093672;28;20324;-61
2021/06/26 09:06:50;;;;;;;12.40;11.25;;;22.40;99.90;;;;;;5093482;28;20205;-59
2021/06/26 09:09:30;;;;;;;10.05;9.15;;;22.40;99.90;;;;;;5093062;28;20218;-59
2021/06/26 09:12:04;;;;;;;12.48;11.18;;;22.30;99.90;;;;;;5093340;28;20297;-60
2021/06/26 09:14:33;;;;;;;11.82;10.77;;;22.40;99.90;;;;;;5092996;28;20286;-59
2021/06/26 09:17:01;;;;;;;10.80;9.80;;;22.80;99.90;;;;;;5092876;28;20710;-60
2021/06/26 09:19:30;;;;;;;12.02;9.10;;;23.20;99.90;;;;;;5092874;28;20212;-60
2021/06/26 09:22:01;;;;;;;11.95;10.85;;;23.50;99.90;;;;;;5093338;28;20269;-61
2021/06/26 09:24:44;;;;;;;9.40;8.50;;;23.80;99.90;;;;;;5092956;28;20203;-60
2021/06/26 09:27:14;;;;;;;11.45;9.85;;;24.00;99.90;;;;;;5093162;28;20202;-60
2021/06/26 09:29:48;;;;;;;9.82;8.93;;;24.40;99.90;;;;;;5091840;28;20368;-60
2021/06/26 09:32:22;;;;;;;10.32;9.38;;;24.90;99.90;;;;;;5093383;28;20279;-60
2021/06/26 09:34:51;;;;;;;9.88;8.60;;;25.30;99.90;;;;;;5093239;28;20202;-60
2021/06/26 09:37:22;;;;;;;9.60;8.80;;;25.60;99.90;;;;;;5092847;28;20220;-60
2021/06/26 09:39:55;;;;;;;10.10;9.18;;;25.80;99.90;;;;;;5092775;28;20626;-61
2021/06/26 09:42:25;;;;;;;10.82;9.77;;;26.00;99.90;;;;;;5093073;28;20644;-60
2021/06/26 09:44:55;;;;;;;10.70;9.70;;;26.10;99.90;;;;;;5092840;28;20219;-59
2021/06/26 09:47:27;;;;;;;9.10;8.30;;;26.00;99.90;;;;;;5092848;28;20289;-59
2021/06/26 09:50:06;;;;;;;8.30;7.60;;;26.00;99.90;;;;;;5092361;28;20673;-60
2021/06/26 09:52:39;;;;;;;9.90;9.00;;;25.80;99.90;;;;;;5092695;28;20297;-59
2021/06/26 09:55:18;;;;;;;11.00;9.85;;;25.50;99.90;;;;;;5092491;28;20622;-59
2021/06/26 09:57:46;;;;;;;9.73;8.82;;;25.00;99.90;;;;;;5093144;28;20198;-60
2021/06/26 10:00:16;;;;;;;9.63;8.73;;;24.60;99.90;;;;;;5092694;28;20252;-59
2021/06/26 10:02:44;;;;;;;11.70;10.60;;;24.40;99.90;;;;;;5092701;28;20311;-60
2021/06/26 10:05:13;;;;;;;11.93;10.48;;;24.10;99.90;;;;;;5092468;28;20309;-61
2021/06/26 10:07:42;;;;;;;11.55;10.55;;;23.90;99.90;;;;;;5092357;28;20862;-61
2021/06/26 10:10:12;;;;;;;11.40;10.38;;;23.90;99.90;;;;;;5092542;28;20221;-61
2021/06/26 10:12:42;;;;;;;10.35;9.25;;;23.90;99.90;;;;;;5092577;28;20217;-61
2021/06/26 10:15:12;;;;;;;9.73;8.73;;;24.10;99.90;;;;;;5092566;28;20202;-61
2021/06/26 10:17:41;;;;;;;9.88;8.82;;;24.20;99.90;;;;;;5092897;28;20207;-64
2021/06/26 10:20:13;;;;;;;9.40;8.50;;;24.40;99.90;;;;;;5092084;28;20682;-64
2021/06/26 10:22:44;;;;;;;10.75;9.65;;;24.50;99.90;;;;;;5092499;28;20218;-62
2021/06/26 10:25:13;;;;;;;9.57;8.63;;;24.60;99.90;;;;;;5092650;28;20198;-61
2021/06/26 10:27:43;;;;;;;10.02;9.00;;;24.80;99.90;;;;;;5092544;28;20283;-61
2021/06/26 10:30:13;;;;;;;10.00;9.07;;;25.00;99.90;;;;;;5092338;28;20594;-61
2021/06/26 10:32:54;;;;;;;9.55;8.65;;;25.20;99.90;;;;;;5092428;28;20279;-61
2021/06/26 10:35:22;;;;;;;9.32;8.43;;;25.60;99.90;;;;;;5092133;28;20191;-64
2021/06/26 10:38:06;;;;;;;9.73;8.85;;;25.90;99.90;;;;;;5092375;28;20282;-61
2021/06/26 10:40:42;;;;;;;8.68;7.88;;;26.20;99.90;;;;;;5094350;28;20275;-61
2021/06/26 10:43:16;;;;;;;8.77;7.93;;;26.40;99.90;;;;;;5096409;28;20299;-66
2021/06/26 10:45:45;;;;;;;7.60;7.00;;;26.70;99.90;;;;;;5096230;28;20594;-65
2021/06/26 10:48:18;;;;;;;7.57;6.90;;;26.90;99.90;;;;;;5096438;28;20286;-65
2021/06/26 10:50:48;;;;;;;8.75;7.57;;;27.20;99.90;;;;;;5095966;28;20322;-65
2021/06/26 10:53:34;;;;;;;6.70;6.18;;;27.40;99.90;;;;;;5096358;28;20192;-66
2021/06/26 10:56:05;;;;;;;7.13;6.53;;;27.50;99.90;;;;;;5095691;28;20678;-65
2021/06/26 10:58:36;;;;;;;8.10;7.30;;;27.40;99.90;;;;;;5095961;28;20191;-65
2021/06/26 11:01:21;;;;;;;10.32;9.43;;;27.30;99.90;;;;;;5095841;28;20279;-65
2021/06/26 11:03:52;;;;;;;9.45;8.55;;;27.20;99.90;;;;;;5095733;28;20224;-65
2021/06/26 11:06:26;;;;;;;10.18;9.27;;;26.70;99.90;;;;;;5095732;28;20270;-65
2021/06/26 11:09:03;;;;;;;9.10;8.27;;;26.40;99.90;;;;;;5095878;28;20216;-65
2021/06/26 11:11:37;;;;;;;10.05;9.25;;;26.30;99.90;;;;;;5095837;28;20194;-64
2021/06/26 11:14:19;;;;;;;9.48;8.40;;;26.10;99.90;;;;;;5095889;28;20294;-62
2021/06/26 11:16:49;;;;;;;7.57;6.88;;;26.00;99.90;;;;;;5095423;28;20210;-63
2021/06/26 11:19:18;;;;;;;9.38;8.57;;;25.90;99.90;;;;;;5095603;28;20188;-64
2021/06/26 11:21:47;;;;;;;9.30;8.40;;;26.00;99.90;;;;;;5095493;28;20303;-63
2021/06/26 11:24:17;;;;;;;9.77;8.77;;;25.90;99.90;;;;;;5095593;28;20200;-63
2021/06/26 11:26:49;;;;;;;8.45;7.65;;;26.00;99.90;;;;;;5095658;28;20287;-63
2021/06/26 11:29:33;;;;;;;8.98;8.18;;;26.10;99.90;;;;;;5095271;28;20184;-64
2021/06/26 11:32:05;;;;;;;8.75;7.97;;;26.40;99.90;;;;;;5095457;28;20184;-64
2021/06/26 11:34:34;;;;;;;8.77;7.88;;;26.50;99.90;;;;;;5095126;28;20195;-64
2021/06/26 11:37:05;;;;;;;9.23;8.25;;;26.50;99.90;;;;;;5095062;28;20307;-64
2021/06/26 11:39:34;;;;;;;7.70;6.93;;;26.40;99.90;;;;;;5095341;28;20188;-64
2021/06/26 11:42:03;;;;;;;8.82;7.93;;;26.30;99.90;;;;;;5095236;28;20572;-64
2021/06/26 11:44:34;;;;;;;9.52;8.73;;;26.20;99.90;;;;;;5094787;28;20713;-65
2021/06/26 11:47:04;;;;;;;8.95;8.07;;;26.10;99.90;;;;;;5095355;28;20242;-64
2021/06/26 11:49:37;;;;;;;9.70;8.80;;;26.00;99.90;;;;;;5094643;28;20227;-63
2021/06/26 11:52:08;;;;;;;8.00;7.25;;;25.90;99.90;;;;;;5094061;28;20220;-65
2021/06/26 11:54:36;;;;;;;10.07;8.48;;;25.80;99.90;;;;;;5094800;28;20268;-63
2021/06/26 11:57:06;;;;;;;8.70;8.00;;;26.00;99.90;;;;;;5094760;28;20208;-64
2021/06/26 11:59:47;;;;;;;9.25;8.35;;;26.10;99.90;;;;;;5090474;28;20557;-64
2021/06/26 12:02:16;;;;;;;9.63;8.63;;;26.30;99.90;;;;;;5079348;28;20185;-64
2021/06/26 12:04:44;;;;;;;9.20;8.40;;;26.40;99.90;;;;;;5079560;28;20291;-64
2021/06/26 12:07:13;;;;;;;9.60;8.70;;;26.40;99.90;;;;;;5085596;28;20606;-64
2021/06/26 12:09:43;;;;;;;8.68;7.97;;;26.50;99.90;;;;;;5083972;28;20192;-64
2021/06/26 12:12:12;;;;;;;10.48;8.95;;;26.50;99.90;;;;;;5086131;28;20282;-64
2021/06/26 12:14:41;;;;;;;7.85;7.25;;;26.90;99.90;;;;;;5073563;28;20208;-65
2021/06/26 12:17:12;;;;;;;9.18;8.38;;;26.90;99.90;;;;;;5073226;28;20196;-64
2021/06/26 12:19:41;;;;;;;8.57;7.78;;;27.00;99.90;;;;;;5078314;28;20189;-64
2021/06/26 12:22:10;;;;;;;9.48;8.57;;;27.00;99.90;;;;;;5094344;28;20245;-64
2021/06/26 12:24:40;;;;;;;10.23;8.68;;;26.70;99.90;;;;;;5094204;28;20307;-64
2021/06/26 12:27:10;;;;;;;9.57;8.68;;;26.30;99.90;;;;;;5089692;28;20196;-63
2021/06/26 12:29:40;;;;;;;9.43;8.48;;;26.00;99.90;;;;;;5093582;28;20195;-63
2021/06/26 12:32:09;;;;;;;8.90;8.00;;;25.70;99.90;;;;;;5094199;28;20199;-63
2021/06/26 12:34:47;;;;;;;10.55;8.13;;;25.30;99.90;;;;;;5093958;28;20197;-62
2021/06/26 12:37:15;;;;;;;9.02;8.13;;;25.10;99.90;;;;;;5086062;28;20640;-64
2021/06/26 12:39:43;;;;;;;8.15;7.45;;;25.00;99.90;;;;;;5081686;28;20288;-65